• pl
  • eng

Awiacja
WIADOMOŚCI
ostatnia aktualizacja: 17.04.2020 19:04
Szanowni Państwo,

mając na uwadze sytuację związaną z pandemią wywołaną koronawirusem SARS-Cov-2 oraz w trosce o bezpieczeństwo Państwa oraz naszych pracowników, IMGW-PIB podjął decyzję o przeniesieniu kolejnej edycji Szkoły Meteorologii Lotniczej na przyszły rok. W tej chwili podanie dokładnego terminu szkoły nie jest możliwe, ale jak tylko będzie znany zostanie ogłoszony na naszych stronach internetowych, do których śledzenia serdecznie zapraszamy.

Kliknij na pogrubioną czerwoną nazwę, aby odkodować depeszę. 21:01 28.11.2020
  • WIND
  • SIGNIFICANT EURO
  • SIGNIFICANT
  • SIGMET
  • AIRMET
  • TAF FC
  • TAF FT
  • METAR GG30
  • METAR GG00


METAR EPBY 282000Z 34007KT 9999 -RA FEW009 BKN015 04/02 Q1023=

METAR EPGD 282000Z 36006KT 330V050 9999 -SHRA FEW003 SCT008 BKN014TCU
04/03 Q1022 =

METAR EPKK 282000Z 28004KT 9999 BKN041 01/M01 Q1021 =

METAR EPKT 282000Z 31004KT 9999 FEW014 BKN036 M01/M01 Q1021 =

METAR EPLB 282000Z 30004KT 2500 SN BKN032 OVC042 M01/M01 Q1020 =

METAR EPLL 282000Z 28004KT 9000 -SN BKN023 OVC037 01/M01 Q1021 =

METAR EPMO 282000Z 30006KT 7000 -SN SCT006 BKN014 01/01 Q1020
R08/290195 =

METAR EPPO 282000Z 32004KT 9999 BKN030 03/01 Q1024 =

METAR EPRA 282000Z NIL=

METAR EPRZ 282000Z 02006KT 6000 -SN BKN003 OVC014 M01/M02 Q1020 =

METAR EPSC 282000Z 29003KT 6000 FEW024 BKN032 M00/M00 Q1026 =

METAR EPSY 282000Z 35006KT 9000 -SN BKN015 01/00 Q1020=

METAR EPWA 282000Z 32007KT 9999 -SN BKN007 01/00 Q1020 NOSIG=

METAR EPWR 282000Z 28008KT 9999 BKN040 02/00 Q1024 =

METAR EPZG 282000Z 31004KT 9000 OVC044 03/02 Q1025 =
Awiacja.imgw.pl jest pogodowym serwisem informacyjnym
Instytutu Meteorologii i Gospodarki Wodnej Państwowego Instytutu Badawczego.
Copyright IMGW PIB 2009-2019© Wszelkie prawa zastrzeżone.